Cannon Air Force Base
KCVS : now visible

Airfield :











YOU CAN JOIN US ON...

 
LOGIN :

Register | Disclaimer

   EN    FR    IT 

 









Legend :    VFR   Marginal VFR   IFR   Intensive IFR   Very Intensive IFR
Visi :
Ceiling :
>= 8 km
>= 3000ft
5 to 8 km
1000 to 3000 ft
1500m to 5 km
500 to 1000 ft
800 to 1500m
200 to 500 ft
< 800m
< 200 ft
Symbols :   Thunderstorms  Fog  Heavy snow  Heavy precipitations  Wind > 20 kt






- Airport Elevation : 4295 ft


KCVS - Cannon Air Force Base

CURRENT METAR :
  • 191658Z AUTO 15009KT 10SM OVC021 02/M06 A3029 RMK AO2 SLP262 T00161056 $

EXPIRED METARs :
  • 191558Z AUTO 16007KT 10SM OVC020 01/M06 A3030 RMK AO2 CIG 019 RWY22 CIG 019 RWY31 SLP265 T00061056 $
  • 191548Z AUTO 15007KT 10SM OVC019 01/M05 A3029 RMK AO2 SLP262 $
  • 191458Z AUTO 16006KT 10SM OVC021 00/M05 A3028 RMK AO2 SLP262 T00011053 53001 $

TAF TAF KCVS
Valid from the 19 at 10:00 until the 20 at 16:00 UTC


191000Z 1910/2016 11006KT 9999 SCT030 QNH3024INS
BECMG 1911/1912 17008KT 9999 BKN025 620252 QNH3023INS
BECMG 1917/1918 VRB06KT 9999 SCT030 BKN120 QNH3010INS
BECMG 2005/2006 10010G15KT 9999 SCT005 OVC010 620804 QNH3022INS
BECMG 2008/2009 07015G25KT 9999 -SHRA OVC008 620203 620604 QNH3029INS
BECMG 2011/2012 04012G20KT 8000 -RASN OVC005 620058 QNH3037INS TX10/1921Z TNM02/1912Z



MET'MAP, your aeronautical weather chart ! - Copyright ORBIFLY December 2007 - Disclaimer

ORBIFLY MET'MAP TEAM :

Programming & Development : Alexandra Zaïnal
Concept & original design : Baudouin d'Aumeries
Assistance for programming : Marc-Olivier Méhu
Technical & hardware support : Manuel Goepfert

Contact : metmap@orbifly.com




SOURCES & CREDITS :

   NOAA       Earth
Advisory